This is the latest recevied weather packets stored in our database for station/object KE5OYL. If no packets are shown the sender has not sent any weather packets the latest 10 day(s).
| Time | Temp. | Humidity | Pressure | Rain* | Wind** | Luminosity | Snow |
|---|---|---|---|---|---|---|---|
| 1777485491 | 16.11° C | 81% | 1016 hPa | 0 mm | - | 100 W/m² | - |
| 1777485188 | 16.11° C | 81% | 1016.2 hPa | 0 mm | - | 90 W/m² | - |
| 1777484884 | 16.11° C | 81% | 1016.4 hPa | 0 mm | - | 56 W/m² | - |
| 1777484582 | 16.11° C | 81% | 1016.8 hPa | 0 mm | - | 50 W/m² | - |
| 1777484278 | 16.11° C | 81% | 1016.6 hPa | 0 mm | - | 70 W/m² | - |
| 1777483974 | 16.11° C | 81% | 1016.4 hPa | 0 mm | - | 58 W/m² | - |
| 1777483671 | 16.11° C | 82% | 1016.6 hPa | 0 mm | - | 38 W/m² | - |
| 1777483366 | 16.11° C | 81% | 1016.5 hPa | 0 mm | - | 39 W/m² | - |
| 1777483061 | 16.67° C | 81% | 1016.8 hPa | 0 mm | - | 34 W/m² | - |
| 1777482759 | 16.11° C | 81% | 1016.1 hPa | 0 mm | - | 119 W/m² | - |
| 1777482455 | 16.11° C | 81% | 1014.7 hPa | 0 mm | - | 371 W/m² | - |
| 1777482152 | 16.11° C | 82% | 1015.2 hPa | 0 mm | - | 289 W/m² | - |
| 1777481850 | 16.11° C | 82% | 1015.9 hPa | 0 mm | - | 83 W/m² | - |
| 1777481547 | 16.11° C | 82% | 1016.3 hPa | 0 mm | - | 93 W/m² | - |
| 1777481244 | 15.56° C | 82% | 1016.5 hPa | 0 mm | - | 113 W/m² | - |
| 1777480941 | 15.56° C | 82% | 1016.7 hPa | 0 mm | - | 98 W/m² | - |
| 1777480637 | 15.56° C | 82% | 1016.9 hPa | 0 mm | - | 83 W/m² | - |
| 1777480334 | 15.56° C | 83% | 1017.1 hPa | 0 mm | - | 72 W/m² | - |
| 1777480029 | 15.56° C | 82% | 1016.7 hPa | 0 mm | - | 88 W/m² | - |
| 1777479727 | 16.11° C | 82% | 1016.2 hPa | 0 mm | - | 261 W/m² | - |
| 1777479424 | 15.56° C | 82% | 1016.5 hPa | 0 mm | - | 149 W/m² | - |
| 1777479121 | 15.56° C | 81% | 1016.5 hPa | 0 mm | - | 128 W/m² | - |
| 1777478817 | 15.56° C | 81% | 1017.1 hPa | 0 mm | - | 47 W/m² | - |
| 1777478514 | 15.56° C | 81% | 1016.7 hPa | 0 mm | - | 52 W/m² | - |
| 1777478211 | 15.56° C | 81% | 1016.1 hPa | 0 mm | - | 104 W/m² | - |
* Rain latest hour (hover to see other rain measurements)
** Current wind speed in m/s (hover to see current wind gust speed)